sensor_id;sensor_type;location;lat;lon;timestamp;P1;durP1;ratioP1;P2;durP2;ratioP2
39066;SDS011;24821;51.988;6.020;2022-08-18T00:00:46;49.15;;;45.90;;
39066;SDS011;24821;51.988;6.020;2022-08-18T00:03:12;44.85;;;42.15;;
39066;SDS011;24821;51.988;6.020;2022-08-18T00:05:37;50.22;;;46.88;;
39066;SDS011;24821;51.988;6.020;2022-08-18T00:08:03;44.50;;;41.85;;
39066;SDS011;24821;51.988;6.020;2022-08-18T00:10:30;51.47;;;48.55;;
39066;SDS011;24821;51.988;6.020;2022-08-18T00:12:56;47.20;;;44.30;;
39066;SDS011;24821;51.988;6.020;2022-08-18T00:15:22;46.03;;;43.22;;
39066;SDS011;24821;51.988;6.020;2022-08-18T00:17:48;45.38;;;42.58;;
39066;SDS011;24821;51.988;6.020;2022-08-18T00:20:15;46.25;;;43.33;;
39066;SDS011;24821;51.988;6.020;2022-08-18T00:22:42;46.92;;;43.97;;
39066;SDS011;24821;51.988;6.020;2022-08-18T00:25:09;43.33;;;40.63;;
39066;SDS011;24821;51.988;6.020;2022-08-18T00:27:36;44.28;;;41.67;;
39066;SDS011;24821;51.988;6.020;2022-08-18T00:30:04;44.45;;;41.70;;
39066;SDS011;24821;51.988;6.020;2022-08-18T00:32:34;40.90;;;38.50;;
39066;SDS011;24821;51.988;6.020;2022-08-18T00:37:43;43.40;;;40.70;;
39066;SDS011;24821;51.988;6.020;2022-08-18T00:40:11;43.08;;;40.38;;
39066;SDS011;24821;51.988;6.020;2022-08-18T00:42:39;46.95;;;44.35;;
39066;SDS011;24821;51.988;6.020;2022-08-18T00:45:38;44.63;;;41.95;;
39066;SDS011;24821;51.988;6.020;2022-08-18T00:51:55;43.13;;;40.47;;
39066;SDS011;24821;51.988;6.020;2022-08-18T00:54:35;46.33;;;43.22;;
39066;SDS011;24821;51.988;6.020;2022-08-18T01:04:02;38.80;;;36.35;;
39066;SDS011;24821;51.988;6.020;2022-08-18T01:06:45;40.05;;;37.20;;
39066;SDS011;24821;51.988;6.020;2022-08-18T01:09:16;35.38;;;32.95;;
39066;SDS011;24821;51.988;6.020;2022-08-18T01:11:42;42.28;;;39.45;;
39066;SDS011;24821;51.988;6.020;2022-08-18T01:14:08;40.17;;;37.47;;
39066;SDS011;24821;51.988;6.020;2022-08-18T01:16:34;45.55;;;42.65;;
39066;SDS011;24821;51.988;6.020;2022-08-18T01:19:19;37.25;;;34.90;;
39066;SDS011;24821;51.988;6.020;2022-08-18T01:22:07;37.97;;;35.47;;
39066;SDS011;24821;51.988;6.020;2022-08-18T01:24:57;41.50;;;38.88;;
39066;SDS011;24821;51.988;6.020;2022-08-18T01:27:43;37.97;;;35.47;;
39066;SDS011;24821;51.988;6.020;2022-08-18T01:30:10;40.90;;;38.33;;
39066;SDS011;24821;51.988;6.020;2022-08-18T01:32:39;36.92;;;34.72;;
39066;SDS011;24821;51.988;6.020;2022-08-18T01:35:09;42.55;;;39.78;;
39066;SDS011;24821;51.988;6.020;2022-08-18T01:37:40;43.83;;;40.95;;
39066;SDS011;24821;51.988;6.020;2022-08-18T01:40:10;37.85;;;35.47;;
39066;SDS011;24821;51.988;6.020;2022-08-18T01:42:42;38.38;;;35.97;;
39066;SDS011;24821;51.988;6.020;2022-08-18T01:45:16;38.47;;;36.00;;
39066;SDS011;24821;51.988;6.020;2022-08-18T01:47:44;41.22;;;38.53;;
39066;SDS011;24821;51.988;6.020;2022-08-18T01:50:09;42.65;;;39.95;;
39066;SDS011;24821;51.988;6.020;2022-08-18T01:52:37;42.92;;;40.22;;
39066;SDS011;24821;51.988;6.020;2022-08-18T01:55:04;38.47;;;36.17;;
39066;SDS011;24821;51.988;6.020;2022-08-18T01:57:32;38.63;;;36.10;;
39066;SDS011;24821;51.988;6.020;2022-08-18T01:59:59;41.30;;;38.65;;
39066;SDS011;24821;51.988;6.020;2022-08-18T02:02:26;44.80;;;41.90;;
39066;SDS011;24821;51.988;6.020;2022-08-18T02:04:56;44.63;;;41.83;;
39066;SDS011;24821;51.988;6.020;2022-08-18T02:07:26;44.88;;;42.17;;
39066;SDS011;24821;51.988;6.020;2022-08-18T02:09:52;43.15;;;40.60;;
39066;SDS011;24821;51.988;6.020;2022-08-18T02:12:18;41.42;;;39.13;;
39066;SDS011;24821;51.988;6.020;2022-08-18T02:14:44;42.05;;;39.75;;
39066;SDS011;24821;51.988;6.020;2022-08-18T02:17:10;41.47;;;39.17;;
39066;SDS011;24821;51.988;6.020;2022-08-18T02:19:38;38.13;;;35.72;;
39066;SDS011;24821;51.988;6.020;2022-08-18T02:22:06;42.85;;;40.40;;
39066;SDS011;24821;51.988;6.020;2022-08-18T02:24:33;40.28;;;37.78;;
39066;SDS011;24821;51.988;6.020;2022-08-18T02:26:59;40.92;;;38.67;;
39066;SDS011;24821;51.988;6.020;2022-08-18T02:29:25;42.72;;;40.33;;
39066;SDS011;24821;51.988;6.020;2022-08-18T02:31:50;41.90;;;39.63;;
39066;SDS011;24821;51.988;6.020;2022-08-18T02:34:16;39.72;;;37.45;;
39066;SDS011;24821;51.988;6.020;2022-08-18T02:36:42;44.67;;;42.28;;
39066;SDS011;24821;51.988;6.020;2022-08-18T02:39:08;43.80;;;41.30;;
39066;SDS011;24821;51.988;6.020;2022-08-18T02:41:33;39.17;;;37.08;;
39066;SDS011;24821;51.988;6.020;2022-08-18T02:44:01;40.28;;;38.08;;
39066;SDS011;24821;51.988;6.020;2022-08-18T02:46:28;37.67;;;35.63;;
39066;SDS011;24821;51.988;6.020;2022-08-18T02:48:54;41.72;;;39.58;;
39066;SDS011;24821;51.988;6.020;2022-08-18T02:51:20;41.95;;;39.55;;
39066;SDS011;24821;51.988;6.020;2022-08-18T02:53:49;40.10;;;37.88;;
39066;SDS011;24821;51.988;6.020;2022-08-18T02:56:33;38.65;;;36.65;;
39066;SDS011;24821;51.988;6.020;2022-08-18T02:59:00;41.65;;;39.33;;
39066;SDS011;24821;51.988;6.020;2022-08-18T03:01:33;41.33;;;39.15;;
39066;SDS011;24821;51.988;6.020;2022-08-18T03:04:02;39.00;;;37.00;;
39066;SDS011;24821;51.988;6.020;2022-08-18T03:06:30;40.40;;;38.30;;
39066;SDS011;24821;51.988;6.020;2022-08-18T03:08:57;40.22;;;38.13;;
39066;SDS011;24821;51.988;6.020;2022-08-18T03:11:24;39.22;;;37.15;;
39066;SDS011;24821;51.988;6.020;2022-08-18T03:13:52;37.50;;;35.50;;
39066;SDS011;24821;51.988;6.020;2022-08-18T03:16:18;37.13;;;35.08;;
39066;SDS011;24821;51.988;6.020;2022-08-18T03:18:45;36.58;;;34.67;;
39066;SDS011;24821;51.988;6.020;2022-08-18T03:21:13;36.55;;;34.65;;
39066;SDS011;24821;51.988;6.020;2022-08-18T03:23:42;33.38;;;31.38;;
39066;SDS011;24821;51.988;6.020;2022-08-18T03:26:11;38.35;;;36.25;;
39066;SDS011;24821;51.988;6.020;2022-08-18T03:28:42;35.65;;;33.78;;
39066;SDS011;24821;51.988;6.020;2022-08-18T03:31:11;36.97;;;35.08;;
39066;SDS011;24821;51.988;6.020;2022-08-18T03:33:38;37.53;;;35.53;;
39066;SDS011;24821;51.988;6.020;2022-08-18T03:36:07;37.17;;;35.28;;
39066;SDS011;24821;51.988;6.020;2022-08-18T03:38:34;39.58;;;37.38;;
39066;SDS011;24821;51.988;6.020;2022-08-18T03:41:00;34.60;;;32.78;;
39066;SDS011;24821;51.988;6.020;2022-08-18T03:43:26;42.15;;;40.00;;
39066;SDS011;24821;51.988;6.020;2022-08-18T03:45:52;39.13;;;37.03;;
39066;SDS011;24821;51.988;6.020;2022-08-18T03:48:21;43.47;;;41.22;;
39066;SDS011;24821;51.988;6.020;2022-08-18T03:50:49;42.25;;;39.88;;
39066;SDS011;24821;51.988;6.020;2022-08-18T03:53:14;41.17;;;39.10;;
39066;SDS011;24821;51.988;6.020;2022-08-18T03:55:40;40.75;;;38.55;;
39066;SDS011;24821;51.988;6.020;2022-08-18T03:58:05;37.25;;;35.30;;
39066;SDS011;24821;51.988;6.020;2022-08-18T04:00:32;40.92;;;38.75;;
39066;SDS011;24821;51.988;6.020;2022-08-18T04:03:02;39.53;;;37.55;;
39066;SDS011;24821;51.988;6.020;2022-08-18T04:05:27;36.08;;;34.17;;
39066;SDS011;24821;51.988;6.020;2022-08-18T04:07:53;40.85;;;38.67;;
39066;SDS011;24821;51.988;6.020;2022-08-18T04:10:21;37.38;;;35.45;;
39066;SDS011;24821;51.988;6.020;2022-08-18T04:12:47;40.92;;;38.75;;
39066;SDS011;24821;51.988;6.020;2022-08-18T04:15:20;38.92;;;36.88;;
39066;SDS011;24821;51.988;6.020;2022-08-18T04:17:59;40.25;;;38.28;;
39066;SDS011;24821;51.988;6.020;2022-08-18T04:20:29;39.22;;;37.22;;
39066;SDS011;24821;51.988;6.020;2022-08-18T04:22:59;40.63;;;38.50;;
39066;SDS011;24821;51.988;6.020;2022-08-18T04:25:26;40.55;;;38.25;;
39066;SDS011;24821;51.988;6.020;2022-08-18T04:27:52;41.05;;;38.70;;
39066;SDS011;24821;51.988;6.020;2022-08-18T04:30:22;40.05;;;37.47;;
39066;SDS011;24821;51.988;6.020;2022-08-18T04:32:48;37.88;;;35.88;;
39066;SDS011;24821;51.988;6.020;2022-08-18T04:35:14;38.22;;;36.33;;
39066;SDS011;24821;51.988;6.020;2022-08-18T04:37:40;36.88;;;34.97;;
39066;SDS011;24821;51.988;6.020;2022-08-18T04:40:05;33.92;;;31.92;;
39066;SDS011;24821;51.988;6.020;2022-08-18T04:42:32;39.40;;;37.38;;
39066;SDS011;24821;51.988;6.020;2022-08-18T04:44:57;34.40;;;32.53;;
39066;SDS011;24821;51.988;6.020;2022-08-18T04:47:23;38.42;;;36.42;;
39066;SDS011;24821;51.988;6.020;2022-08-18T04:49:48;37.63;;;35.45;;
39066;SDS011;24821;51.988;6.020;2022-08-18T04:52:14;35.58;;;33.67;;
39066;SDS011;24821;51.988;6.020;2022-08-18T04:54:59;36.95;;;34.85;;
39066;SDS011;24821;51.988;6.020;2022-08-18T04:57:25;33.92;;;32.03;;
39066;SDS011;24821;51.988;6.020;2022-08-18T04:59:52;34.30;;;32.47;;
39066;SDS011;24821;51.988;6.020;2022-08-18T05:02:18;34.92;;;33.13;;
39066;SDS011;24821;51.988;6.020;2022-08-18T05:04:45;32.40;;;30.58;;
39066;SDS011;24821;51.988;6.020;2022-08-18T05:07:15;35.50;;;33.60;;
39066;SDS011;24821;51.988;6.020;2022-08-18T05:09:42;35.28;;;33.25;;
39066;SDS011;24821;51.988;6.020;2022-08-18T05:12:09;39.22;;;37.17;;
39066;SDS011;24821;51.988;6.020;2022-08-18T05:14:37;39.97;;;37.88;;
39066;SDS011;24821;51.988;6.020;2022-08-18T05:17:03;39.15;;;36.92;;
39066;SDS011;24821;51.988;6.020;2022-08-18T05:19:29;38.75;;;36.65;;
39066;SDS011;24821;51.988;6.020;2022-08-18T05:21:56;38.90;;;36.75;;
39066;SDS011;24821;51.988;6.020;2022-08-18T05:24:24;37.40;;;35.42;;
39066;SDS011;24821;51.988;6.020;2022-08-18T05:26:51;37.50;;;35.33;;
39066;SDS011;24821;51.988;6.020;2022-08-18T05:29:17;37.33;;;35.22;;
39066;SDS011;24821;51.988;6.020;2022-08-18T05:31:47;37.88;;;35.78;;
39066;SDS011;24821;51.988;6.020;2022-08-18T05:34:13;39.20;;;37.00;;
39066;SDS011;24821;51.988;6.020;2022-08-18T05:41:45;36.60;;;34.30;;
39066;SDS011;24821;51.988;6.020;2022-08-18T05:44:30;36.65;;;34.75;;
39066;SDS011;24821;51.988;6.020;2022-08-18T05:46:59;37.53;;;35.33;;
39066;SDS011;24821;51.988;6.020;2022-08-18T05:49:49;32.45;;;30.45;;
39066;SDS011;24821;51.988;6.020;2022-08-18T05:55:01;36.40;;;34.42;;
39066;SDS011;24821;51.988;6.020;2022-08-18T05:58:11;33.85;;;31.95;;
39066;SDS011;24821;51.988;6.020;2022-08-18T06:00:50;37.78;;;35.47;;
39066;SDS011;24821;51.988;6.020;2022-08-18T06:03:20;39.30;;;37.17;;
39066;SDS011;24821;51.988;6.020;2022-08-18T06:05:54;36.35;;;34.38;;
39066;SDS011;24821;51.988;6.020;2022-08-18T06:08:24;36.95;;;35.03;;
39066;SDS011;24821;51.988;6.020;2022-08-18T06:10:55;37.55;;;35.53;;
39066;SDS011;24821;51.988;6.020;2022-08-18T06:13:20;38.40;;;36.17;;
39066;SDS011;24821;51.988;6.020;2022-08-18T06:15:50;38.08;;;35.88;;
39066;SDS011;24821;51.988;6.020;2022-08-18T06:29:08;21.80;;;20.42;;
39066;SDS011;24821;51.988;6.020;2022-08-18T06:39:47;26.08;;;24.13;;
39066;SDS011;24821;51.988;6.020;2022-08-18T06:42:16;31.23;;;29.23;;
39066;SDS011;24821;51.988;6.020;2022-08-18T06:44:51;24.77;;;23.38;;
39066;SDS011;24821;51.988;6.020;2022-08-18T06:55:35;24.87;;;23.60;;
39066;SDS011;24821;51.988;6.020;2022-08-18T06:58:03;25.67;;;24.30;;
39066;SDS011;24821;51.988;6.020;2022-08-18T07:00:44;25.17;;;23.77;;
39066;SDS011;24821;51.988;6.020;2022-08-18T07:06:02;25.48;;;24.08;;
39066;SDS011;24821;51.988;6.020;2022-08-18T07:08:38;23.80;;;22.20;;
39066;SDS011;24821;51.988;6.020;2022-08-18T07:11:39;31.27;;;29.67;;
39066;SDS011;24821;51.988;6.020;2022-08-18T07:14:12;32.45;;;30.77;;
39066;SDS011;24821;51.988;6.020;2022-08-18T07:16:48;23.90;;;22.70;;
39066;SDS011;24821;51.988;6.020;2022-08-18T07:19:17;36.97;;;35.05;;
39066;SDS011;24821;51.988;6.020;2022-08-18T07:21:44;34.58;;;32.75;;
39066;SDS011;24821;51.988;6.020;2022-08-18T07:24:28;30.30;;;28.92;;
39066;SDS011;24821;51.988;6.020;2022-08-18T07:27:01;27.77;;;26.45;;
39066;SDS011;24821;51.988;6.020;2022-08-18T07:29:30;29.63;;;28.23;;
39066;SDS011;24821;51.988;6.020;2022-08-18T07:32:00;30.33;;;28.75;;
39066;SDS011;24821;51.988;6.020;2022-08-18T07:34:36;28.90;;;27.50;;
39066;SDS011;24821;51.988;6.020;2022-08-18T07:37:07;32.78;;;31.10;;
39066;SDS011;24821;51.988;6.020;2022-08-18T07:39:35;25.17;;;23.73;;
39066;SDS011;24821;51.988;6.020;2022-08-18T07:42:08;27.50;;;26.10;;
39066;SDS011;24821;51.988;6.020;2022-08-18T07:44:59;27.67;;;26.23;;
39066;SDS011;24821;51.988;6.020;2022-08-18T07:47:37;28.25;;;26.88;;
39066;SDS011;24821;51.988;6.020;2022-08-18T07:50:13;34.00;;;32.30;;
39066;SDS011;24821;51.988;6.020;2022-08-18T07:52:42;31.75;;;30.25;;
39066;SDS011;24821;51.988;6.020;2022-08-18T07:55:27;28.67;;;27.27;;
39066;SDS011;24821;51.988;6.020;2022-08-18T07:58:05;27.85;;;26.45;;
39066;SDS011;24821;51.988;6.020;2022-08-18T08:03:51;21.58;;;20.30;;
39066;SDS011;24821;51.988;6.020;2022-08-18T08:06:40;19.17;;;18.05;;
39066;SDS011;24821;51.988;6.020;2022-08-18T08:11:42;20.73;;;19.55;;
39066;SDS011;24821;51.988;6.020;2022-08-18T08:17:01;16.05;;;15.05;;
39066;SDS011;24821;51.988;6.020;2022-08-18T08:28:07;11.35;;;10.63;;
39066;SDS011;24821;51.988;6.020;2022-08-18T08:33:31;11.52;;;10.82;;
39066;SDS011;24821;51.988;6.020;2022-08-18T08:36:03;11.52;;;10.75;;
39066;SDS011;24821;51.988;6.020;2022-08-18T08:41:30;13.60;;;13.00;;
39066;SDS011;24821;51.988;6.020;2022-08-18T08:44:02;12.57;;;11.77;;
39066;SDS011;24821;51.988;6.020;2022-08-18T08:47:16;12.15;;;11.45;;
39066;SDS011;24821;51.988;6.020;2022-08-18T08:49:26;10.50;;;9.90;;
39066;SDS011;24821;51.988;6.020;2022-08-18T08:52:04;11.65;;;10.98;;
39066;SDS011;24821;51.988;6.020;2022-08-18T08:54:55;12.70;;;12.10;;
39066;SDS011;24821;51.988;6.020;2022-08-18T08:57:26;14.65;;;13.80;;
39066;SDS011;24821;51.988;6.020;2022-08-18T08:59:57;14.98;;;14.15;;
39066;SDS011;24821;51.988;6.020;2022-08-18T09:02:30;12.70;;;12.02;;
39066;SDS011;24821;51.988;6.020;2022-08-18T09:05:10;12.57;;;11.85;;
39066;SDS011;24821;51.988;6.020;2022-08-18T09:07:41;12.55;;;11.80;;
39066;SDS011;24821;51.988;6.020;2022-08-18T09:24:18;13.77;;;13.15;;
39066;SDS011;24821;51.988;6.020;2022-08-18T09:30:01;12.48;;;11.88;;
39066;SDS011;24821;51.988;6.020;2022-08-18T09:37:49;10.13;;;9.63;;
39066;SDS011;24821;51.988;6.020;2022-08-18T09:40:51;10.50;;;9.90;;
39066;SDS011;24821;51.988;6.020;2022-08-18T09:44:00;9.50;;;8.88;;
39066;SDS011;24821;51.988;6.020;2022-08-18T09:51:50;9.38;;;8.77;;
39066;SDS011;24821;51.988;6.020;2022-08-18T09:54:24;11.18;;;10.48;;
39066;SDS011;24821;51.988;6.020;2022-08-18T09:56:56;12.43;;;11.65;;
39066;SDS011;24821;51.988;6.020;2022-08-18T10:02:02;12.77;;;12.00;;
39066;SDS011;24821;51.988;6.020;2022-08-18T10:04:34;12.38;;;11.77;;
39066;SDS011;24821;51.988;6.020;2022-08-18T10:07:28;11.63;;;11.02;;
39066;SDS011;24821;51.988;6.020;2022-08-18T10:12:51;13.48;;;12.75;;
39066;SDS011;24821;51.988;6.020;2022-08-18T10:15:57;13.05;;;12.35;;
39066;SDS011;24821;51.988;6.020;2022-08-18T10:18:47;14.35;;;13.57;;
39066;SDS011;24821;51.988;6.020;2022-08-18T10:21:19;15.63;;;14.82;;
39066;SDS011;24821;51.988;6.020;2022-08-18T10:23:56;16.70;;;15.73;;
39066;SDS011;24821;51.988;6.020;2022-08-18T10:31:22;13.68;;;12.85;;
39066;SDS011;24821;51.988;6.020;2022-08-18T10:36:32;10.02;;;9.43;;
39066;SDS011;24821;51.988;6.020;2022-08-18T10:39:06;13.98;;;13.20;;
39066;SDS011;24821;51.988;6.020;2022-08-18T10:44:02;9.98;;;9.27;;
39066;SDS011;24821;51.988;6.020;2022-08-18T10:46:31;8.57;;;8.18;;
39066;SDS011;24821;51.988;6.020;2022-08-18T10:49:01;13.13;;;12.30;;
39066;SDS011;24821;51.988;6.020;2022-08-18T11:00:12;14.55;;;13.75;;
39066;SDS011;24821;51.988;6.020;2022-08-18T11:05:11;17.65;;;16.73;;
39066;SDS011;24821;51.988;6.020;2022-08-18T11:07:44;20.33;;;19.23;;
39066;SDS011;24821;51.988;6.020;2022-08-18T11:10:20;20.25;;;19.35;;
39066;SDS011;24821;51.988;6.020;2022-08-18T11:15:55;23.15;;;22.08;;
39066;SDS011;24821;51.988;6.020;2022-08-18T11:18:37;20.80;;;19.73;;
39066;SDS011;24821;51.988;6.020;2022-08-18T11:24:45;16.02;;;14.90;;
39066;SDS011;24821;51.988;6.020;2022-08-18T11:29:30;9.60;;;8.90;;
39066;SDS011;24821;51.988;6.020;2022-08-18T11:37:18;12.88;;;12.02;;
39066;SDS011;24821;51.988;6.020;2022-08-18T11:39:52;10.75;;;10.15;;
39066;SDS011;24821;51.988;6.020;2022-08-18T11:42:25;11.73;;;11.13;;
39066;SDS011;24821;51.988;6.020;2022-08-18T11:44:54;9.43;;;8.93;;
39066;SDS011;24821;51.988;6.020;2022-08-18T11:47:26;10.25;;;9.60;;
39066;SDS011;24821;51.988;6.020;2022-08-18T11:50:13;8.45;;;8.05;;
39066;SDS011;24821;51.988;6.020;2022-08-18T11:52:48;11.13;;;10.52;;
39066;SDS011;24821;51.988;6.020;2022-08-18T11:55:19;13.55;;;12.75;;
39066;SDS011;24821;51.988;6.020;2022-08-18T11:57:57;12.32;;;11.70;;
39066;SDS011;24821;51.988;6.020;2022-08-18T12:03:09;9.82;;;9.00;;
39066;SDS011;24821;51.988;6.020;2022-08-18T12:05:57;9.38;;;8.80;;
39066;SDS011;24821;51.988;6.020;2022-08-18T12:08:34;11.60;;;11.10;;
39066;SDS011;24821;51.988;6.020;2022-08-18T12:11:19;11.15;;;10.48;;
39066;SDS011;24821;51.988;6.020;2022-08-18T12:13:48;14.23;;;13.43;;
39066;SDS011;24821;51.988;6.020;2022-08-18T12:16:30;16.13;;;15.32;;
39066;SDS011;24821;51.988;6.020;2022-08-18T12:18:58;13.18;;;12.48;;
39066;SDS011;24821;51.988;6.020;2022-08-18T12:21:24;10.63;;;10.02;;
39066;SDS011;24821;51.988;6.020;2022-08-18T12:23:50;8.88;;;8.27;;
39066;SDS011;24821;51.988;6.020;2022-08-18T12:26:16;11.57;;;10.98;;
39066;SDS011;24821;51.988;6.020;2022-08-18T12:28:41;13.23;;;12.52;;
39066;SDS011;24821;51.988;6.020;2022-08-18T12:31:08;10.80;;;10.20;;
39066;SDS011;24821;51.988;6.020;2022-08-18T12:33:34;13.25;;;12.55;;
39066;SDS011;24821;51.988;6.020;2022-08-18T12:36:03;13.00;;;12.30;;
39066;SDS011;24821;51.988;6.020;2022-08-18T12:38:32;11.90;;;11.30;;
39066;SDS011;24821;51.988;6.020;2022-08-18T12:40:58;9.25;;;8.85;;
39066;SDS011;24821;51.988;6.020;2022-08-18T12:43:24;11.15;;;10.65;;
39066;SDS011;24821;51.988;6.020;2022-08-18T12:45:50;8.68;;;8.18;;
39066;SDS011;24821;51.988;6.020;2022-08-18T12:48:16;8.55;;;8.15;;
39066;SDS011;24821;51.988;6.020;2022-08-18T12:50:42;7.15;;;6.75;;
39066;SDS011;24821;51.988;6.020;2022-08-18T12:53:08;8.07;;;7.57;;
39066;SDS011;24821;51.988;6.020;2022-08-18T12:55:37;8.18;;;7.60;;
39066;SDS011;24821;51.988;6.020;2022-08-18T12:58:06;10.60;;;10.00;;
39066;SDS011;24821;51.988;6.020;2022-08-18T13:00:32;8.73;;;8.32;;
39066;SDS011;24821;51.988;6.020;2022-08-18T13:02:58;9.52;;;8.43;;
39066;SDS011;24821;51.988;6.020;2022-08-18T13:05:24;8.73;;;8.25;;
39066;SDS011;24821;51.988;6.020;2022-08-18T13:07:50;10.55;;;9.90;;
39066;SDS011;24821;51.988;6.020;2022-08-18T13:10:16;8.48;;;8.07;;
39066;SDS011;24821;51.988;6.020;2022-08-18T13:12:41;7.05;;;6.75;;
39066;SDS011;24821;51.988;6.020;2022-08-18T13:15:07;9.73;;;9.13;;
39066;SDS011;24821;51.988;6.020;2022-08-18T13:17:35;11.23;;;10.52;;
39066;SDS011;24821;51.988;6.020;2022-08-18T13:20:07;7.65;;;7.25;;
39066;SDS011;24821;51.988;6.020;2022-08-18T13:22:35;9.93;;;9.47;;
39066;SDS011;24821;51.988;6.020;2022-08-18T13:25:04;24.67;;;22.77;;
39066;SDS011;24821;51.988;6.020;2022-08-18T13:27:32;11.15;;;10.48;;
39066;SDS011;24821;51.988;6.020;2022-08-18T13:29:58;12.77;;;12.02;;
39066;SDS011;24821;51.988;6.020;2022-08-18T13:32:24;11.80;;;11.02;;
39066;SDS011;24821;51.988;6.020;2022-08-18T13:34:50;14.98;;;13.68;;
39066;SDS011;24821;51.988;6.020;2022-08-18T13:37:16;13.00;;;12.27;;
39066;SDS011;24821;51.988;6.020;2022-08-18T13:39:42;10.93;;;10.05;;
39066;SDS011;24821;51.988;6.020;2022-08-18T13:42:07;11.18;;;10.48;;
39066;SDS011;24821;51.988;6.020;2022-08-18T13:44:33;10.05;;;9.52;;
39066;SDS011;24821;51.988;6.020;2022-08-18T13:46:58;10.00;;;9.52;;
39066;SDS011;24821;51.988;6.020;2022-08-18T13:49:24;8.82;;;8.32;;
39066;SDS011;24821;51.988;6.020;2022-08-18T13:51:51;10.02;;;9.52;;
39066;SDS011;24821;51.988;6.020;2022-08-18T13:54:24;9.07;;;8.68;;
39066;SDS011;24821;51.988;6.020;2022-08-18T13:56:52;8.73;;;8.23;;
39066;SDS011;24821;51.988;6.020;2022-08-18T13:59:18;9.50;;;8.93;;
39066;SDS011;24821;51.988;6.020;2022-08-18T14:01:47;10.60;;;10.00;;
39066;SDS011;24821;51.988;6.020;2022-08-18T14:04:15;9.98;;;9.48;;
39066;SDS011;24821;51.988;6.020;2022-08-18T14:06:41;10.00;;;9.40;;
39066;SDS011;24821;51.988;6.020;2022-08-18T14:09:07;10.05;;;9.50;;
39066;SDS011;24821;51.988;6.020;2022-08-18T14:11:33;9.18;;;8.43;;
39066;SDS011;24821;51.988;6.020;2022-08-18T14:14:01;9.27;;;8.65;;
39066;SDS011;24821;51.988;6.020;2022-08-18T14:16:28;9.00;;;8.32;;
39066;SDS011;24821;51.988;6.020;2022-08-18T14:18:55;8.40;;;7.80;;
39066;SDS011;24821;51.988;6.020;2022-08-18T14:21:57;8.48;;;8.07;;
39066;SDS011;24821;51.988;6.020;2022-08-18T14:24:41;9.27;;;8.77;;
39066;SDS011;24821;51.988;6.020;2022-08-18T14:27:30;9.60;;;9.10;;
39066;SDS011;24821;51.988;6.020;2022-08-18T14:29:58;16.05;;;14.93;;
39066;SDS011;24821;51.988;6.020;2022-08-18T14:32:32;12.38;;;11.77;;
39066;SDS011;24821;51.988;6.020;2022-08-18T14:34:59;18.17;;;16.95;;
39066;SDS011;24821;51.988;6.020;2022-08-18T14:37:27;10.23;;;9.63;;
39066;SDS011;24821;51.988;6.020;2022-08-18T14:39:54;9.95;;;9.45;;
39066;SDS011;24821;51.988;6.020;2022-08-18T14:42:19;10.65;;;10.05;;
39066;SDS011;24821;51.988;6.020;2022-08-18T14:44:49;10.48;;;9.82;;
39066;SDS011;24821;51.988;6.020;2022-08-18T14:47:15;10.50;;;10.00;;
39066;SDS011;24821;51.988;6.020;2022-08-18T14:49:41;8.73;;;8.32;;
39066;SDS011;24821;51.988;6.020;2022-08-18T14:52:07;8.25;;;7.85;;
39066;SDS011;24821;51.988;6.020;2022-08-18T14:54:35;7.90;;;7.50;;
39066;SDS011;24821;51.988;6.020;2022-08-18T14:57:01;9.77;;;9.20;;
39066;SDS011;24821;51.988;6.020;2022-08-18T14:59:27;8.00;;;7.60;;
39066;SDS011;24821;51.988;6.020;2022-08-18T15:01:54;7.43;;;7.03;;
39066;SDS011;24821;51.988;6.020;2022-08-18T15:04:21;7.80;;;7.35;;
39066;SDS011;24821;51.988;6.020;2022-08-18T15:06:47;7.28;;;6.95;;
39066;SDS011;24821;51.988;6.020;2022-08-18T15:09:13;7.10;;;6.72;;
39066;SDS011;24821;51.988;6.020;2022-08-18T15:11:39;7.40;;;6.93;;
39066;SDS011;24821;51.988;6.020;2022-08-18T15:14:05;9.10;;;8.35;;
39066;SDS011;24821;51.988;6.020;2022-08-18T15:16:30;7.22;;;6.82;;
39066;SDS011;24821;51.988;6.020;2022-08-18T15:18:59;6.47;;;6.18;;
39066;SDS011;24821;51.988;6.020;2022-08-18T15:21:26;7.07;;;6.72;;
39066;SDS011;24821;51.988;6.020;2022-08-18T15:24:11;6.65;;;6.35;;
39066;SDS011;24821;51.988;6.020;2022-08-18T15:26:55;7.53;;;7.03;;
39066;SDS011;24821;51.988;6.020;2022-08-18T15:29:22;7.70;;;7.20;;
39066;SDS011;24821;51.988;6.020;2022-08-18T15:31:48;6.93;;;6.63;;
39066;SDS011;24821;51.988;6.020;2022-08-18T15:34:14;6.47;;;6.18;;
39066;SDS011;24821;51.988;6.020;2022-08-18T15:36:43;6.75;;;6.35;;
39066;SDS011;24821;51.988;6.020;2022-08-18T15:39:11;7.20;;;6.80;;
39066;SDS011;24821;51.988;6.020;2022-08-18T15:41:37;6.50;;;6.13;;
39066;SDS011;24821;51.988;6.020;2022-08-18T15:44:05;7.60;;;6.95;;
39066;SDS011;24821;51.988;6.020;2022-08-18T15:46:33;8.20;;;7.70;;
39066;SDS011;24821;51.988;6.020;2022-08-18T15:49:00;8.05;;;7.55;;
39066;SDS011;24821;51.988;6.020;2022-08-18T15:51:29;6.80;;;6.47;;
39066;SDS011;24821;51.988;6.020;2022-08-18T15:53:55;6.07;;;5.80;;
39066;SDS011;24821;51.988;6.020;2022-08-18T15:56:21;6.93;;;6.47;;
39066;SDS011;24821;51.988;6.020;2022-08-18T15:58:48;10.18;;;9.68;;
39066;SDS011;24821;51.988;6.020;2022-08-18T16:01:15;7.78;;;7.38;;
39066;SDS011;24821;51.988;6.020;2022-08-18T16:03:43;7.88;;;7.47;;
39066;SDS011;24821;51.988;6.020;2022-08-18T16:06:12;7.03;;;6.63;;
39066;SDS011;24821;51.988;6.020;2022-08-18T16:08:40;6.28;;;5.97;;
39066;SDS011;24821;51.988;6.020;2022-08-18T16:11:11;6.72;;;6.32;;
39066;SDS011;24821;51.988;6.020;2022-08-18T16:13:38;6.68;;;6.28;;
39066;SDS011;24821;51.988;6.020;2022-08-18T16:16:14;6.45;;;6.15;;
39066;SDS011;24821;51.988;6.020;2022-08-18T16:18:44;7.25;;;6.85;;
39066;SDS011;24821;51.988;6.020;2022-08-18T16:21:12;7.38;;;6.97;;
39066;SDS011;24821;51.988;6.020;2022-08-18T16:23:40;9.90;;;9.50;;
39066;SDS011;24821;51.988;6.020;2022-08-18T16:26:08;10.07;;;9.55;;
39066;SDS011;24821;51.988;6.020;2022-08-18T16:28:38;11.65;;;11.05;;
39066;SDS011;24821;51.988;6.020;2022-08-18T16:31:05;11.10;;;10.50;;
39066;SDS011;24821;51.988;6.020;2022-08-18T16:33:31;10.73;;;10.23;;
39066;SDS011;24821;51.988;6.020;2022-08-18T16:36:02;9.38;;;8.88;;
39066;SDS011;24821;51.988;6.020;2022-08-18T16:38:29;10.45;;;9.82;;
39066;SDS011;24821;51.988;6.020;2022-08-18T16:40:55;11.00;;;10.40;;
39066;SDS011;24821;51.988;6.020;2022-08-18T16:43:21;9.15;;;8.55;;
39066;SDS011;24821;51.988;6.020;2022-08-18T16:45:46;9.57;;;9.18;;
39066;SDS011;24821;51.988;6.020;2022-08-18T16:48:13;10.00;;;9.50;;
39066;SDS011;24821;51.988;6.020;2022-08-18T16:50:39;10.35;;;9.93;;
39066;SDS011;24821;51.988;6.020;2022-08-18T16:53:06;9.27;;;8.88;;
39066;SDS011;24821;51.988;6.020;2022-08-18T16:55:32;9.23;;;8.82;;
39066;SDS011;24821;51.988;6.020;2022-08-18T16:57:59;8.88;;;8.38;;
39066;SDS011;24821;51.988;6.020;2022-08-18T17:00:43;8.40;;;8.00;;
39066;SDS011;24821;51.988;6.020;2022-08-18T17:03:27;13.27;;;12.38;;
39066;SDS011;24821;51.988;6.020;2022-08-18T17:06:13;11.55;;;10.95;;
39066;SDS011;24821;51.988;6.020;2022-08-18T17:08:43;8.38;;;7.97;;
39066;SDS011;24821;51.988;6.020;2022-08-18T17:11:12;11.93;;;11.43;;
39066;SDS011;24821;51.988;6.020;2022-08-18T17:13:40;15.52;;;14.82;;